Time;durP1;ratioP1;P1;durP2;ratioP2;P2;SDS_P1;SDS_P2;PMS_P1;PMS_P2;Temp;Humidity;BMP_temperature;BMP_pressure;BME280_temperature;BME280_humidity;BME280_pressure;Samples;Min_cycle;Max_cycle;Signal;HPM_P1;HPM_P2
2023/04/30 00:01:45;;;;;;;5.37;1.67;;;26.90;88.90;;;;;;4976380;28;20253;-91
2023/04/30 00:04:16;;;;;;;5.93;2.10;;;27.10;87.80;;;;;;4976632;28;20223;-91
2023/04/30 00:06:47;;;;;;;5.77;1.67;;;27.10;87.90;;;;;;4976169;28;20247;-91
2023/04/30 00:09:18;;;;;;;7.43;1.80;;;26.70;89.10;;;;;;4976990;28;20211;-92
2023/04/30 00:11:50;;;;;;;3.70;1.50;;;26.70;90.20;;;;;;4976515;28;20211;-92
2023/04/30 00:14:21;;;;;;;4.60;1.57;;;26.80;90.50;;;;;;4976625;28;20221;-91
2023/04/30 00:16:53;;;;;;;6.07;1.70;;;26.90;90.40;;;;;;4993633;28;20214;-90
2023/04/30 00:19:25;;;;;;;4.17;1.67;;;27.10;90.00;;;;;;4998189;28;20230;-92
2023/04/30 00:21:56;;;;;;;3.90;1.47;;;27.20;91.00;;;;;;4996121;28;20227;-90
2023/04/30 00:24:27;;;;;;;3.93;1.70;;;27.20;90.50;;;;;;4980997;28;20207;-91
2023/04/30 00:26:58;;;;;;;4.77;1.87;;;26.80;89.30;;;;;;4977676;28;20239;-91
2023/04/30 00:29:29;;;;;;;4.20;1.50;;;26.50;89.80;;;;;;4975198;28;20294;-91
2023/04/30 00:32:02;;;;;;;3.50;1.60;;;26.00;88.20;;;;;;4976090;28;20207;-91
2023/04/30 00:34:33;;;;;;;5.57;1.60;;;26.00;90.20;;;;;;4975739;28;20226;-90
2023/04/30 00:37:04;;;;;;;4.00;1.73;;;26.10;90.60;;;;;;4976189;28;20684;-92
2023/04/30 00:39:36;;;;;;;4.67;1.67;;;26.40;90.00;;;;;;4973882;28;20206;-92
2023/04/30 00:42:07;;;;;;;4.70;1.60;;;26.30;88.50;;;;;;4975781;28;20258;-91
2023/04/30 00:44:38;;;;;;;5.63;1.37;;;26.50;87.80;;;;;;4975447;28;20732;-90
2023/04/30 00:47:11;;;;;;;4.80;1.53;;;26.60;87.80;;;;;;4975755;28;20231;-92
2023/04/30 00:49:42;;;;;;;3.13;1.43;;;26.10;89.20;;;;;;4974235;28;20207;-92
2023/04/30 00:52:13;;;;;;;4.37;1.60;;;25.90;85.40;;;;;;4978535;28;20234;-92
2023/04/30 00:54:45;;;;;;;6.27;1.50;;;25.70;87.00;;;;;;4964567;28;20250;-93
2023/04/30 00:57:17;;;;;;;3.00;1.37;;;25.80;87.70;;;;;;4958837;28;20204;-93
2023/04/30 00:59:48;;;;;;;3.50;1.57;;;26.40;86.50;;;;;;4956266;28;20218;-93
2023/04/30 01:02:22;;;;;;;4.47;1.60;;;26.60;87.80;;;;;;4956905;28;20203;-93
2023/04/30 01:04:54;;;;;;;5.97;1.37;;;27.10;83.90;;;;;;4957099;28;20208;-93
2023/04/30 01:07:27;;;;;;;4.93;1.57;;;27.60;83.70;;;;;;4986885;28;20239;-92
2023/04/30 01:09:58;;;;;;;3.60;1.37;;;26.70;82.80;;;;;;4956353;28;20210;-92
2023/04/30 01:12:36;;;;;;;4.17;1.80;;;26.50;83.10;;;;;;4956366;28;20275;-92
2023/04/30 01:15:15;;;;;;;8.33;1.50;;;26.50;82.20;;;;;;4956334;28;20211;-91
2023/04/30 01:17:56;;;;;;;3.97;1.57;;;26.20;83.10;;;;;;4955591;28;20674;-93
2023/04/30 01:20:29;;;;;;;4.83;1.90;;;26.90;83.90;;;;;;4955932;28;20266;-93
2023/04/30 01:23:20;;;;;;;4.33;1.60;;;27.80;83.20;;;;;;4957104;28;20674;-91
2023/04/30 01:26:08;;;;;;;4.07;1.90;;;28.30;83.20;;;;;;4956178;28;20215;-92
2023/04/30 01:28:44;;;;;;;3.57;1.60;;;28.30;83.50;;;;;;4955076;28;20207;-91
2023/04/30 01:31:16;;;;;;;4.37;1.50;;;27.60;82.60;;;;;;4958033;28;20614;-92
2023/04/30 01:33:48;;;;;;;3.70;1.60;;;27.90;82.30;;;;;;4956606;28;20204;-91
2023/04/30 01:36:36;;;;;;;5.23;1.63;;;27.40;82.30;;;;;;4956113;28;20207;-91
2023/04/30 01:39:25;;;;;;;5.17;1.60;;;26.60;83.90;;;;;;4955309;29;20211;-91
2023/04/30 01:42:05;;;;;;;3.83;1.67;;;26.80;84.30;;;;;;4956307;29;20268;-91
2023/04/30 01:44:59;;;;;;;5.40;1.77;;;27.00;83.80;;;;;;4956345;28;20239;-91
2023/04/30 01:47:40;;;;;;;5.57;1.33;;;26.90;85.50;;;;;;4959657;28;20231;-91
2023/04/30 01:50:21;;;;;;;2.80;1.40;;;26.50;84.80;;;;;;4975208;28;20593;-90
2023/04/30 01:52:55;;;;;;;3.80;1.40;;;26.50;86.10;;;;;;4975934;28;20275;-91
2023/04/30 01:55:31;;;;;;;7.37;1.77;;;26.00;85.60;;;;;;4975712;28;20661;-91
2023/04/30 01:58:04;;;;;;;4.80;1.60;;;25.30;86.50;;;;;;4974787;28;20214;-92
2023/04/30 02:00:37;;;;;;;3.60;1.47;;;24.90;88.00;;;;;;4976026;28;20206;-91
2023/04/30 02:03:08;;;;;;;5.03;1.90;;;24.80;89.10;;;;;;4975265;28;20222;-91
2023/04/30 02:05:40;;;;;;;3.67;1.67;;;24.70;90.60;;;;;;4975376;28;20214;-91
2023/04/30 02:08:11;;;;;;;3.07;1.90;;;24.50;90.20;;;;;;4974282;28;20238;-92
2023/04/30 02:10:43;;;;;;;3.73;1.47;;;24.40;90.70;;;;;;4974391;28;20274;-92
2023/04/30 02:13:14;;;;;;;3.30;1.30;;;24.20;90.20;;;;;;4975269;28;20306;-91
2023/04/30 02:15:46;;;;;;;5.30;1.80;;;24.00;89.10;;;;;;4975436;28;20632;-92
2023/04/30 02:18:17;;;;;;;3.77;1.53;;;23.90;90.40;;;;;;4975198;28;20266;-92
2023/04/30 02:20:48;;;;;;;3.13;1.70;;;23.70;91.80;;;;;;4975892;28;20207;-92
2023/04/30 02:23:20;;;;;;;3.43;1.60;;;23.60;91.40;;;;;;4978711;28;20211;-92
2023/04/30 02:25:51;;;;;;;3.43;1.60;;;23.50;90.90;;;;;;4978469;28;20203;-91
2023/04/30 02:28:22;;;;;;;4.93;1.60;;;23.40;90.90;;;;;;4977735;28;20234;-90
2023/04/30 02:30:55;;;;;;;3.67;1.70;;;23.20;91.00;;;;;;4980886;28;20226;-91
2023/04/30 02:33:27;;;;;;;7.33;1.80;;;23.10;91.50;;;;;;5000901;28;20210;-90
2023/04/30 02:36:00;;;;;;;3.57;1.70;;;23.10;91.80;;;;;;5000468;28;20286;-88
2023/04/30 02:38:31;;;;;;;2.93;1.67;;;23.00;92.40;;;;;;4989402;28;20590;-90
2023/04/30 02:41:02;;;;;;;5.00;1.60;;;22.80;92.30;;;;;;4978726;28;20262;-90
2023/04/30 02:43:34;;;;;;;3.57;1.80;;;22.70;92.70;;;;;;4978617;28;20246;-90
2023/04/30 02:46:08;;;;;;;3.77;1.60;;;22.60;92.90;;;;;;4978501;28;20207;-89
2023/04/30 02:48:39;;;;;;;6.10;2.03;;;22.50;92.70;;;;;;4977165;28;20238;-90
2023/04/30 02:51:10;;;;;;;4.47;2.57;;;22.40;91.30;;;;;;4977951;28;20222;-90
2023/04/30 02:53:41;;;;;;;3.40;1.90;;;22.20;91.80;;;;;;4979642;28;20290;-89
2023/04/30 02:56:13;;;;;;;3.87;1.90;;;22.10;91.70;;;;;;4960304;28;20207;-91
2023/04/30 02:58:44;;;;;;;3.67;1.93;;;21.90;90.70;;;;;;4957331;29;20223;-91
2023/04/30 03:01:17;;;;;;;3.97;1.97;;;21.80;90.30;;;;;;4959230;28;20235;-91
2023/04/30 03:03:49;;;;;;;4.03;2.10;;;21.60;90.00;;;;;;4958248;29;20218;-91
2023/04/30 03:06:20;;;;;;;3.87;2.23;;;21.50;90.80;;;;;;4959830;28;20245;-92
2023/04/30 03:08:51;;;;;;;7.00;2.40;;;21.30;90.80;;;;;;4959543;28;20770;-91
2023/04/30 03:11:23;;;;;;;3.60;1.83;;;21.10;88.70;;;;;;4958384;28;20290;-91
2023/04/30 03:13:54;;;;;;;5.17;1.80;;;21.00;88.60;;;;;;4958435;28;20207;-92
2023/04/30 03:16:29;;;;;;;4.43;2.10;;;20.90;87.20;;;;;;4959537;28;20296;-91
2023/04/30 03:19:01;;;;;;;4.80;2.00;;;20.80;86.50;;;;;;4973059;28;20218;-91
2023/04/30 03:21:32;;;;;;;4.53;2.00;;;20.70;85.80;;;;;;4977784;28;20203;-91
2023/04/30 03:24:04;;;;;;;4.70;2.20;;;20.60;86.50;;;;;;4977467;28;20211;-92
2023/04/30 03:26:35;;;;;;;4.70;2.10;;;20.50;88.30;;;;;;4977858;28;20331;-92
2023/04/30 03:29:06;;;;;;;4.60;2.17;;;20.30;90.10;;;;;;4976575;28;20245;-92
2023/04/30 03:31:39;;;;;;;4.87;2.17;;;20.20;90.00;;;;;;4977216;28;20199;-91
2023/04/30 03:34:10;;;;;;;5.33;2.27;;;20.00;91.20;;;;;;4976995;28;20218;-90
2023/04/30 03:36:42;;;;;;;6.17;2.20;;;19.90;92.30;;;;;;4977107;28;20195;-89
2023/04/30 03:39:13;;;;;;;6.53;2.30;;;19.70;92.60;;;;;;4976368;28;20266;-89
2023/04/30 03:41:44;;;;;;;6.17;2.40;;;19.50;93.80;;;;;;4976974;28;20298;-90
2023/04/30 03:44:15;;;;;;;6.07;2.30;;;19.30;93.80;;;;;;4977087;28;20238;-90
2023/04/30 03:46:48;;;;;;;5.33;2.67;;;19.20;94.10;;;;;;4968049;28;20211;-90
2023/04/30 03:49:19;;;;;;;4.23;2.40;;;19.00;94.60;;;;;;4973891;28;20243;-90
2023/04/30 03:51:51;;;;;;;6.43;2.50;;;19.00;94.60;;;;;;4977018;28;20211;-89
2023/04/30 03:54:22;;;;;;;6.37;2.40;;;18.80;95.10;;;;;;4977036;28;20203;-90
2023/04/30 03:56:54;;;;;;;6.77;2.23;;;18.70;95.30;;;;;;4960398;28;20211;-90
2023/04/30 03:59:25;;;;;;;4.33;2.10;;;18.60;96.90;;;;;;4975946;28;20218;-90
2023/04/30 04:01:58;;;;;;;7.07;2.70;;;18.50;96.80;;;;;;4977490;28;20254;-91
2023/04/30 04:04:32;;;;;;;5.60;2.93;;;18.40;96.80;;;;;;4977187;28;20214;-91
2023/04/30 04:07:03;;;;;;;7.10;2.80;;;18.40;95.00;;;;;;4977334;28;20207;-90
2023/04/30 04:09:34;;;;;;;6.97;2.97;;;18.40;95.10;;;;;;4975866;28;20354;-90
2023/04/30 04:12:05;;;;;;;6.43;2.80;;;18.30;95.70;;;;;;4984896;28;20211;-91
2023/04/30 04:14:37;;;;;;;4.07;2.43;;;18.20;95.40;;;;;;4976893;28;20207;-90
2023/04/30 04:17:10;;;;;;;4.97;2.50;;;18.20;95.10;;;;;;4976279;28;20207;-92
2023/04/30 04:19:41;;;;;;;5.40;2.67;;;18.10;95.40;;;;;;4956796;28;20246;-90
2023/04/30 04:22:13;;;;;;;5.63;2.53;;;18.00;97.20;;;;;;4957715;29;20207;-90
2023/04/30 04:24:44;;;;;;;4.70;2.50;;;18.00;98.50;;;;;;4973655;28;20219;-91
2023/04/30 04:27:16;;;;;;;5.80;2.70;;;17.90;98.70;;;;;;4975030;28;20269;-91
2023/04/30 04:29:47;;;;;;;4.47;2.20;;;17.70;99.90;;;;;;4976081;28;20724;-91
2023/04/30 04:32:21;;;;;;;4.60;2.90;;;17.60;99.90;;;;;;4977056;28;20210;-90
2023/04/30 04:34:54;;;;;;;8.90;2.40;;;17.60;99.90;;;;;;4976018;28;20306;-91
2023/04/30 04:37:25;;;;;;;7.33;2.50;;;17.50;99.90;;;;;;4980663;28;20235;-89
2023/04/30 04:39:57;;;;;;;8.60;2.57;;;17.40;99.40;;;;;;4977976;28;20211;-89
2023/04/30 04:42:28;;;;;;;6.73;2.73;;;17.40;99.90;;;;;;4978702;28;20210;-89
2023/04/30 04:44:59;;;;;;;7.43;2.63;;;17.40;99.90;;;;;;4982395;28;20215;-90
2023/04/30 04:47:32;;;;;;;7.30;3.33;;;17.20;99.90;;;;;;4993565;28;20230;-91
2023/04/30 04:50:04;;;;;;;7.87;2.63;;;17.20;99.90;;;;;;4996535;28;20242;-89
2023/04/30 04:52:35;;;;;;;5.07;2.60;;;17.10;99.90;;;;;;4990167;28;20203;-89
2023/04/30 04:55:08;;;;;;;4.27;2.67;;;17.00;99.90;;;;;;4976861;28;20297;-89
2023/04/30 04:57:40;;;;;;;6.73;2.80;;;16.90;99.90;;;;;;4961346;28;20204;-91
2023/04/30 05:00:12;;;;;;;6.77;2.70;;;16.90;99.90;;;;;;4970139;28;20209;-90
2023/04/30 05:02:46;;;;;;;7.23;2.47;;;16.70;99.90;;;;;;4975360;28;20222;-90
2023/04/30 05:05:17;;;;;;;5.23;2.60;;;16.60;99.90;;;;;;4974882;28;20215;-91
2023/04/30 05:07:51;;;;;;;6.77;2.97;;;16.60;99.90;;;;;;4975752;28;20210;-91
2023/04/30 05:10:22;;;;;;;4.70;2.47;;;16.50;99.90;;;;;;4975529;28;20623;-91
2023/04/30 05:12:54;;;;;;;5.10;2.57;;;16.50;99.90;;;;;;4976295;28;20571;-92
2023/04/30 05:15:25;;;;;;;8.30;2.97;;;16.40;99.90;;;;;;4978441;28;20210;-91
2023/04/30 05:17:59;;;;;;;5.97;2.70;;;16.40;99.90;;;;;;4975372;28;20215;-92
2023/04/30 05:20:30;;;;;;;7.77;3.27;;;16.40;99.90;;;;;;4976468;28;20250;-91
2023/04/30 05:23:02;;;;;;;5.53;3.40;;;16.20;99.90;;;;;;4986018;28;20202;-90
2023/04/30 05:25:33;;;;;;;8.03;3.40;;;16.20;99.90;;;;;;4983122;28;20217;-91
2023/04/30 05:28:05;;;;;;;8.87;3.23;;;16.20;99.90;;;;;;4985495;28;20295;-90
2023/04/30 05:30:36;;;;;;;5.37;3.10;;;16.10;99.90;;;;;;4979336;28;20263;-91
2023/04/30 05:33:10;;;;;;;6.53;3.40;;;16.10;99.90;;;;;;4975633;28;20258;-91
2023/04/30 05:35:41;;;;;;;6.47;3.70;;;16.10;99.90;;;;;;4975269;28;20351;-89
2023/04/30 05:38:13;;;;;;;7.20;3.07;;;16.00;99.90;;;;;;4974336;28;20286;-90
2023/04/30 05:40:44;;;;;;;9.07;3.30;;;16.00;99.90;;;;;;4957721;28;20204;-91
2023/04/30 05:43:15;;;;;;;7.50;3.40;;;15.90;99.90;;;;;;4955608;28;20620;-89
2023/04/30 05:45:46;;;;;;;7.80;3.60;;;15.80;99.90;;;;;;4968763;28;20207;-90
2023/04/30 05:48:20;;;;;;;8.00;3.43;;;15.80;99.90;;;;;;4963717;28;20229;-90
2023/04/30 05:50:51;;;;;;;7.67;3.43;;;15.70;99.90;;;;;;4955438;28;20654;-90
2023/04/30 05:53:22;;;;;;;7.23;3.53;;;15.60;99.90;;;;;;4955548;28;20215;-90
2023/04/30 05:55:55;;;;;;;6.17;3.40;;;15.50;99.90;;;;;;4957626;28;20208;-90
2023/04/30 05:58:27;;;;;;;5.87;3.37;;;15.40;99.90;;;;;;4958221;28;20211;-90
2023/04/30 06:00:59;;;;;;;7.87;3.30;;;15.40;99.90;;;;;;4970435;28;20206;-90
2023/04/30 06:03:32;;;;;;;9.40;3.70;;;15.30;99.90;;;;;;4978277;28;20195;-89
2023/04/30 06:06:04;;;;;;;7.47;3.03;;;15.30;99.90;;;;;;4993667;28;20203;-90
2023/04/30 06:08:36;;;;;;;12.33;3.47;;;15.20;99.90;;;;;;4975856;28;20222;-90
2023/04/30 06:11:08;;;;;;;8.87;3.20;;;15.10;99.90;;;;;;4990059;28;20295;-90
2023/04/30 06:13:39;;;;;;;10.37;3.27;;;15.20;99.90;;;;;;4959054;29;20643;-91
2023/04/30 06:16:10;;;;;;;8.70;2.87;;;15.10;99.90;;;;;;4959412;28;20290;-90
2023/04/30 06:18:43;;;;;;;6.80;3.03;;;15.00;99.90;;;;;;4971792;28;20274;-91
2023/04/30 06:21:14;;;;;;;9.23;3.20;;;15.00;99.90;;;;;;4978446;28;20290;-91
2023/04/30 06:23:46;;;;;;;7.83;3.23;;;15.00;99.90;;;;;;4977103;28;20724;-91
2023/04/30 06:26:18;;;;;;;7.97;3.00;;;14.90;99.90;;;;;;4978359;28;20211;-91
2023/04/30 06:28:49;;;;;;;7.70;3.40;;;14.80;99.90;;;;;;4977652;28;20231;-91
2023/04/30 06:31:20;;;;;;;6.50;3.10;;;14.80;99.90;;;;;;4978326;28;20203;-91
2023/04/30 06:33:53;;;;;;;6.43;2.77;;;14.70;99.90;;;;;;4978542;28;20293;-91
2023/04/30 06:36:24;;;;;;;5.63;3.07;;;14.70;99.90;;;;;;4977991;28;20219;-91
2023/04/30 06:38:55;;;;;;;4.97;2.60;;;14.60;99.90;;;;;;4977648;28;20217;-91
2023/04/30 06:41:26;;;;;;;6.37;3.10;;;14.60;99.90;;;;;;4977948;28;20215;-91
2023/04/30 06:43:58;;;;;;;5.10;2.60;;;14.50;99.90;;;;;;4978111;28;20211;-91
2023/04/30 06:46:30;;;;;;;8.00;2.50;;;14.50;99.90;;;;;;4977137;28;20262;-90
2023/04/30 06:49:03;;;;;;;6.90;3.37;;;14.50;99.90;;;;;;4977035;28;20225;-89
2023/04/30 06:51:34;;;;;;;4.67;2.57;;;14.40;99.90;;;;;;4977815;28;20215;-90
2023/04/30 06:54:06;;;;;;;5.70;2.57;;;14.40;99.90;;;;;;4978139;28;20732;-89
2023/04/30 06:56:37;;;;;;;4.60;2.50;;;14.60;99.90;;;;;;4977965;28;20243;-89
2023/04/30 06:59:08;;;;;;;4.73;2.00;;;14.60;99.90;;;;;;4985814;28;20263;-89
2023/04/30 07:01:39;;;;;;;6.53;2.00;;;14.70;99.90;;;;;;5000317;28;20254;-90
2023/04/30 07:04:12;;;;;;;3.80;1.83;;;14.80;99.90;;;;;;4999400;28;20215;-90
2023/04/30 07:06:43;;;;;;;4.60;2.00;;;14.90;99.90;;;;;;4980889;28;20210;-88
2023/04/30 07:09:15;;;;;;;4.07;1.90;;;14.90;99.90;;;;;;4979345;28;20273;-89
2023/04/30 07:11:46;;;;;;;5.00;1.70;;;14.80;99.90;;;;;;4978307;28;20225;-90
2023/04/30 07:14:17;;;;;;;4.00;2.13;;;14.90;99.90;;;;;;4978203;28;20262;-90
2023/04/30 07:16:51;;;;;;;4.07;2.03;;;14.90;99.90;;;;;;4977550;28;20210;-90
2023/04/30 07:19:25;;;;;;;4.33;1.90;;;14.80;99.90;;;;;;4977072;28;20222;-92
2023/04/30 07:21:56;;;;;;;4.50;2.00;;;14.70;99.90;;;;;;4977498;28;20217;-91
2023/04/30 07:24:28;;;;;;;3.63;2.07;;;14.70;99.90;;;;;;4977820;28;20227;-90
2023/04/30 07:27:02;;;;;;;3.40;1.70;;;14.70;99.90;;;;;;4975794;28;20211;-91
2023/04/30 07:29:33;;;;;;;4.67;2.03;;;14.80;99.90;;;;;;4977109;28;21002;-90
2023/04/30 07:32:05;;;;;;;4.27;1.90;;;14.70;99.90;;;;;;4977232;28;20211;-91
2023/04/30 07:34:38;;;;;;;3.83;2.03;;;14.70;99.90;;;;;;4977195;28;20214;-91
2023/04/30 07:37:10;;;;;;;6.03;2.10;;;14.70;99.90;;;;;;4976961;28;20215;-91
2023/04/30 07:39:41;;;;;;;4.60;2.00;;;14.60;99.90;;;;;;4976542;28;20211;-90
2023/04/30 07:42:12;;;;;;;3.97;2.07;;;14.50;99.90;;;;;;4976791;28;20216;-90
2023/04/30 07:44:45;;;;;;;4.87;2.07;;;14.40;99.90;;;;;;4977035;28;20233;-91
2023/04/30 07:47:17;;;;;;;5.17;2.20;;;14.40;99.90;;;;;;4976834;28;20215;-92
2023/04/30 07:49:51;;;;;;;5.97;2.33;;;14.40;99.90;;;;;;4975835;28;20265;-91
2023/04/30 07:52:22;;;;;;;6.17;2.23;;;14.40;99.90;;;;;;4976490;28;20215;-90
2023/04/30 07:54:53;;;;;;;5.20;2.13;;;14.40;99.90;;;;;;4976908;28;20210;-90
2023/04/30 07:57:26;;;;;;;4.40;2.30;;;14.40;99.90;;;;;;4977032;28;20623;-90
2023/04/30 07:59:58;;;;;;;3.03;1.83;;;14.40;99.90;;;;;;4975389;28;20198;-89
2023/04/30 08:02:30;;;;;;;5.20;1.87;;;14.40;99.90;;;;;;4976414;28;20211;-90
2023/04/30 08:05:03;;;;;;;3.43;2.70;;;14.30;99.90;;;;;;4976486;28;20218;-91
2023/04/30 08:07:34;;;;;;;4.97;2.20;;;14.30;99.90;;;;;;4975551;28;20207;-92
2023/04/30 08:10:06;;;;;;;7.07;2.37;;;14.30;99.90;;;;;;4976266;28;20234;-91
2023/04/30 08:12:38;;;;;;;5.57;1.93;;;14.20;99.90;;;;;;4976519;28;20221;-92
2023/04/30 08:15:09;;;;;;;5.30;1.97;;;14.10;99.90;;;;;;4975660;28;20245;-91
2023/04/30 08:17:40;;;;;;;3.67;2.00;;;14.00;99.90;;;;;;4975403;28;20199;-91
2023/04/30 08:20:14;;;;;;;6.60;2.17;;;13.90;99.90;;;;;;5006193;28;20270;-90
2023/04/30 08:22:46;;;;;;;2.87;2.10;;;13.90;99.90;;;;;;4976093;28;20218;-92
2023/04/30 08:25:17;;;;;;;4.87;2.10;;;13.90;99.90;;;;;;4976120;28;20207;-92
2023/04/30 08:27:48;;;;;;;4.40;2.10;;;13.80;99.90;;;;;;4975400;28;20206;-92
2023/04/30 08:30:20;;;;;;;5.90;2.13;;;13.80;99.90;;;;;;4975739;28;20760;-92
2023/04/30 08:32:51;;;;;;;5.63;2.27;;;13.80;99.90;;;;;;4976070;28;20203;-92
2023/04/30 08:35:28;;;;;;;4.00;2.10;;;13.70;99.90;;;;;;4976048;28;20257;-92
2023/04/30 08:37:59;;;;;;;4.13;2.13;;;13.70;99.90;;;;;;4975978;28;20218;-92
2023/04/30 08:40:31;;;;;;;3.23;2.20;;;13.60;99.90;;;;;;4976109;28;20748;-91
2023/04/30 08:43:21;;;;;;;5.87;2.23;;;13.60;99.90;;;;;;4976140;28;20218;-91
2023/04/30 08:45:53;;;;;;;5.47;2.00;;;13.60;99.90;;;;;;4975926;28;20257;-91
2023/04/30 08:48:26;;;;;;;3.97;1.70;;;13.50;99.90;;;;;;4974232;28;20218;-91
2023/04/30 08:51:02;;;;;;;4.33;2.13;;;13.50;99.90;;;;;;4975343;28;20289;-90
2023/04/30 08:53:37;;;;;;;5.07;1.80;;;13.50;99.90;;;;;;4975850;28;20642;-91
2023/04/30 08:56:10;;;;;;;3.40;1.90;;;13.50;99.90;;;;;;4975761;28;20213;-91
2023/04/30 08:58:42;;;;;;;7.10;2.20;;;13.40;99.90;;;;;;5006069;28;20270;-90
2023/04/30 09:01:14;;;;;;;5.40;1.90;;;13.30;99.90;;;;;;4976139;28;20206;-91
2023/04/30 09:03:45;;;;;;;6.17;1.80;;;13.30;99.90;;;;;;4975916;28;20628;-89
2023/04/30 09:06:22;;;;;;;3.97;1.73;;;13.30;99.90;;;;;;4975925;28;20637;-89
2023/04/30 09:08:53;;;;;;;2.90;1.70;;;13.20;99.90;;;;;;4984554;28;20262;-90
2023/04/30 09:11:29;;;;;;;6.50;2.00;;;13.10;99.90;;;;;;4997974;28;20230;-89
2023/04/30 09:14:01;;;;;;;4.03;1.90;;;13.10;99.90;;;;;;4997001;28;20217;-89
2023/04/30 09:16:47;;;;;;;2.97;1.50;;;13.00;99.90;;;;;;4975735;28;20618;-90
2023/04/30 09:19:29;;;;;;;2.30;1.83;;;12.90;99.90;;;;;;4974171;28;20708;-89
2023/04/30 09:22:20;;;;;;;4.40;1.80;;;12.80;99.90;;;;;;4975025;28;20202;-89
2023/04/30 09:24:52;;;;;;;3.47;1.80;;;12.80;99.90;;;;;;4975060;28;20265;-90
2023/04/30 09:27:24;;;;;;;4.40;1.93;;;12.80;99.90;;;;;;4974527;28;20265;-91
2023/04/30 09:29:55;;;;;;;3.33;2.13;;;12.70;99.90;;;;;;4974259;28;20293;-91
2023/04/30 09:32:30;;;;;;;6.27;1.70;;;12.70;99.90;;;;;;4974720;28;20716;-91
2023/04/30 09:35:02;;;;;;;3.57;1.77;;;12.60;99.90;;;;;;4975023;28;20207;-91
2023/04/30 09:37:41;;;;;;;6.13;2.07;;;12.60;99.90;;;;;;4972994;28;20230;-91
2023/04/30 09:40:13;;;;;;;4.50;1.70;;;12.60;99.90;;;;;;4975062;28;20262;-90
2023/04/30 09:43:00;;;;;;;5.53;2.00;;;12.50;99.90;;;;;;4975246;28;20210;-91
2023/04/30 09:45:41;;;;;;;2.93;2.00;;;12.50;99.90;;;;;;4975252;28;20569;-91
2023/04/30 09:48:12;;;;;;;4.47;2.27;;;12.40;99.90;;;;;;4974197;28;20226;-91
2023/04/30 09:50:47;;;;;;;4.97;1.90;;;12.40;99.90;;;;;;4974917;28;20645;-90
2023/04/30 09:53:20;;;;;;;5.83;2.00;;;12.30;99.90;;;;;;4974760;28;20696;-92
2023/04/30 09:55:51;;;;;;;3.43;1.80;;;12.30;99.90;;;;;;4974718;28;20281;-90
2023/04/30 09:58:28;;;;;;;5.13;1.77;;;12.20;99.90;;;;;;4973882;28;20203;-90
2023/04/30 10:01:01;;;;;;;5.80;2.13;;;12.10;99.90;;;;;;4974826;28;20206;-90
2023/04/30 10:03:33;;;;;;;4.27;1.83;;;12.10;99.90;;;;;;4974319;28;20673;-90
2023/04/30 10:06:05;;;;;;;5.70;2.30;;;12.10;99.90;;;;;;4974367;28;20295;-89
2023/04/30 10:08:42;;;;;;;5.27;2.50;;;12.00;99.90;;;;;;4973639;28;20210;-90
2023/04/30 10:11:17;;;;;;;4.37;2.10;;;12.00;99.90;;;;;;4974610;28;20234;-91
2023/04/30 10:13:55;;;;;;;7.77;2.43;;;12.00;99.90;;;;;;4974713;28;20215;-90
2023/04/30 10:16:35;;;;;;;7.50;2.50;;;12.10;99.90;;;;;;4974294;28;20670;-90
2023/04/30 10:19:13;;;;;;;3.77;2.10;;;12.10;99.90;;;;;;4973616;28;20219;-90
2023/04/30 10:21:47;;;;;;;8.07;2.60;;;12.10;99.90;;;;;;4974350;28;20273;-90
2023/04/30 10:24:21;;;;;;;8.43;2.73;;;12.10;99.90;;;;;;4974795;28;20211;-90
2023/04/30 10:26:53;;;;;;;7.97;2.10;;;12.00;99.90;;;;;;4974532;28;20258;-89
2023/04/30 10:29:24;;;;;;;5.47;2.60;;;12.00;99.90;;;;;;4974013;28;20270;-90
2023/04/30 10:31:56;;;;;;;4.87;2.53;;;12.00;99.90;;;;;;4975077;28;20233;-91
2023/04/30 10:34:44;;;;;;;6.60;2.37;;;11.90;99.90;;;;;;4973517;28;20218;-91
2023/04/30 10:37:22;;;;;;;6.77;2.70;;;11.90;99.90;;;;;;4974459;28;20203;-91
2023/04/30 10:39:56;;;;;;;6.40;2.50;;;12.00;99.90;;;;;;4972669;28;20246;-91
2023/04/30 10:42:27;;;;;;;11.50;3.07;;;11.90;99.90;;;;;;4976197;28;20254;-91
2023/04/30 10:44:58;;;;;;;9.80;3.00;;;11.80;99.90;;;;;;4977818;28;20269;-91
2023/04/30 10:47:30;;;;;;;7.77;2.50;;;11.80;99.90;;;;;;4977591;28;20241;-91
2023/04/30 10:50:06;;;;;;;10.43;2.90;;;11.70;99.90;;;;;;4977605;28;20242;-91
2023/04/30 10:52:40;;;;;;;6.73;2.60;;;11.70;99.90;;;;;;4977568;28;20652;-92
2023/04/30 10:55:17;;;;;;;7.50;2.30;;;11.60;99.90;;;;;;4977796;28;20569;-91
2023/04/30 10:57:51;;;;;;;5.77;2.73;;;11.60;99.90;;;;;;4977078;28;20203;-91
2023/04/30 11:00:26;;;;;;;5.70;2.93;;;11.60;99.90;;;;;;4977617;28;20207;-91
2023/04/30 11:03:05;;;;;;;11.60;2.87;;;11.50;99.90;;;;;;4976969;28;20569;-90
2023/04/30 11:05:38;;;;;;;7.03;2.50;;;11.40;99.90;;;;;;4977652;28;20207;-90
2023/04/30 11:08:13;;;;;;;7.83;2.60;;;11.40;99.90;;;;;;4976688;28;20253;-90
2023/04/30 11:11:00;;;;;;;4.37;2.43;;;11.30;99.90;;;;;;4977616;28;20213;-90
2023/04/30 11:13:40;;;;;;;5.57;2.67;;;11.20;99.90;;;;;;4977779;28;20242;-89
2023/04/30 11:16:12;;;;;;;5.47;2.37;;;11.20;99.90;;;;;;4977986;28;20207;-90
2023/04/30 11:18:45;;;;;;;7.57;3.00;;;11.10;99.90;;;;;;4981262;28;20215;-91
2023/04/30 11:21:16;;;;;;;4.93;2.40;;;11.10;99.90;;;;;;4997959;28;20243;-89
2023/04/30 11:23:52;;;;;;;6.67;2.80;;;11.10;99.90;;;;;;4993056;28;20283;-90
2023/04/30 11:26:24;;;;;;;5.87;2.13;;;11.00;99.90;;;;;;4979223;28;20579;-90
2023/04/30 11:28:58;;;;;;;7.47;2.97;;;10.90;99.90;;;;;;4978309;28;20207;-89
2023/04/30 11:31:35;;;;;;;7.57;2.63;;;10.80;99.90;;;;;;4977500;28;20239;-90
2023/04/30 11:34:06;;;;;;;8.40;3.27;;;10.80;99.90;;;;;;4977084;28;20621;-90
2023/04/30 11:36:40;;;;;;;9.97;2.97;;;10.80;99.90;;;;;;4977609;28;20217;-91
2023/04/30 11:39:13;;;;;;;8.07;3.10;;;10.80;99.90;;;;;;4976688;28;20209;-92
2023/04/30 11:41:47;;;;;;;5.63;2.70;;;10.80;99.90;;;;;;4958059;28;20211;-91
2023/04/30 11:44:26;;;;;;;9.80;2.77;;;10.70;99.90;;;;;;4957833;29;20232;-91
2023/04/30 11:46:57;;;;;;;6.17;2.63;;;10.60;99.90;;;;;;4957778;28;20234;-91
2023/04/30 11:49:30;;;;;;;6.23;2.67;;;10.60;99.90;;;;;;4957078;28;20259;-90
2023/04/30 11:52:01;;;;;;;8.00;2.90;;;10.70;99.90;;;;;;4957546;28;20242;-92
2023/04/30 11:54:34;;;;;;;6.00;2.67;;;10.60;99.90;;;;;;4969889;28;20232;-90
2023/04/30 11:57:07;;;;;;;7.17;3.03;;;10.50;99.90;;;;;;4957810;28;20310;-91
2023/04/30 11:59:43;;;;;;;5.67;2.60;;;10.50;99.90;;;;;;4956867;28;20219;-90
2023/04/30 12:02:17;;;;;;;9.00;2.83;;;10.50;99.90;;;;;;4957650;29;20592;-91
2023/04/30 12:04:49;;;;;;;7.23;2.80;;;10.50;99.90;;;;;;4957250;28;20717;-91
2023/04/30 12:07:20;;;;;;;6.37;3.13;;;10.40;99.90;;;;;;4957592;28;20219;-91
2023/04/30 12:09:56;;;;;;;6.27;2.77;;;10.40;99.90;;;;;;4956816;28;20208;-89
2023/04/30 12:12:38;;;;;;;8.20;2.70;;;10.40;99.90;;;;;;4976636;28;20322;-89
2023/04/30 12:15:17;;;;;;;11.07;3.23;;;10.20;99.90;;;;;;4976098;28;20277;-90
2023/04/30 12:17:48;;;;;;;6.23;2.63;;;10.20;99.90;;;;;;4974481;28;20266;-91
2023/04/30 12:20:20;;;;;;;5.30;2.80;;;10.20;99.90;;;;;;4976105;28;20234;-91
2023/04/30 12:22:52;;;;;;;7.70;3.23;;;10.20;99.90;;;;;;4976146;28;20207;-90
2023/04/30 12:25:24;;;;;;;7.73;2.83;;;10.20;99.90;;;;;;4976116;28;20203;-90
2023/04/30 12:27:59;;;;;;;9.53;3.13;;;10.20;99.90;;;;;;4976029;28;20207;-90
2023/04/30 12:30:31;;;;;;;7.83;2.67;;;10.30;99.90;;;;;;4976843;28;20579;-91
2023/04/30 12:33:03;;;;;;;7.53;3.13;;;10.30;99.90;;;;;;4975099;28;20285;-90
2023/04/30 12:35:34;;;;;;;8.33;2.90;;;10.30;99.90;;;;;;4976182;28;20234;-89
2023/04/30 12:38:08;;;;;;;10.03;3.10;;;10.30;99.90;;;;;;4975376;28;20211;-89
2023/04/30 12:40:40;;;;;;;7.50;3.37;;;10.30;99.90;;;;;;4976061;28;20250;-91
2023/04/30 12:43:17;;;;;;;9.43;3.40;;;10.20;99.90;;;;;;4976515;28;20215;-92
2023/04/30 12:45:52;;;;;;;9.07;3.27;;;10.30;99.90;;;;;;4987082;28;20210;-91
2023/04/30 12:48:25;;;;;;;11.37;3.40;;;10.20;99.90;;;;;;4974727;28;20309;-90
2023/04/30 12:50:59;;;;;;;8.63;3.10;;;10.30;99.90;;;;;;4974651;28;20669;-91
2023/04/30 12:53:32;;;;;;;10.07;3.50;;;10.30;99.90;;;;;;4975733;28;20705;-92
2023/04/30 12:56:14;;;;;;;5.03;3.00;;;10.30;99.90;;;;;;4975522;28;20556;-91
2023/04/30 12:58:49;;;;;;;6.90;3.57;;;10.30;99.90;;;;;;4975044;28;20247;-91
2023/04/30 13:01:22;;;;;;;13.43;3.57;;;10.20;99.90;;;;;;4975819;28;20245;-91
2023/04/30 13:03:54;;;;;;;11.90;3.40;;;10.30;99.90;;;;;;4974511;28;20277;-90
2023/04/30 13:06:26;;;;;;;11.27;4.10;;;10.30;99.90;;;;;;4983920;28;20202;-91
2023/04/30 13:08:57;;;;;;;8.93;3.50;;;10.30;99.90;;;;;;4987389;28;20274;-90
2023/04/30 13:11:29;;;;;;;8.27;3.27;;;10.20;99.90;;;;;;4980045;28;20211;-90
2023/04/30 13:14:02;;;;;;;8.73;3.33;;;10.20;99.90;;;;;;4975350;28;20238;-90
2023/04/30 13:16:34;;;;;;;9.43;3.63;;;10.20;99.90;;;;;;4975548;28;20269;-90